Time;durP1;ratioP1;P1;durP2;ratioP2;P2;SDS_P1;SDS_P2;PMS_P1;PMS_P2;Temp;Humidity;BMP_temperature;BMP_pressure;BME280_temperature;BME280_humidity;BME280_pressure;Samples;Min_cycle;Max_cycle;Signal;HPM_P1;HPM_P2
2023/01/20 00:02:41;;;;;;;28.33;12.40;;;;;0.60;100553.00;;;;10350536;28;20736;-74
2023/01/20 00:07:43;;;;;;;25.47;11.77;;;;;0.60;100567.00;;;;10353262;28;20259;-74
2023/01/20 00:12:45;;;;;;;25.23;10.47;;;;;0.60;100566.00;;;;10377326;28;20618;-74
2023/01/20 00:17:46;;;;;;;28.17;12.03;;;;;0.60;100571.00;;;;10372450;28;20253;-74
2023/01/20 00:22:49;;;;;;;29.23;11.03;;;;;0.60;100575.00;;;;10402101;28;20198;-74
2023/01/20 00:27:54;;;;;;;30.57;12.50;;;;;0.70;100589.00;;;;10374374;28;20211;-74
2023/01/20 00:32:56;;;;;;;31.13;14.07;;;;;0.80;100589.00;;;;10373278;28;20218;-73
2023/01/20 00:37:58;;;;;;;36.07;15.53;;;;;0.80;100601.00;;;;10373315;28;20749;-74
2023/01/20 00:43:00;;;;;;;34.93;15.40;;;;;0.80;100605.00;;;;10347245;28;20306;-74
2023/01/20 00:48:02;;;;;;;34.67;15.33;;;;;0.80;100610.00;;;;10427977;28;20190;-73
2023/01/20 00:53:03;;;;;;;32.57;14.23;;;;;0.80;100605.00;;;;10419174;28;20212;-74
2023/01/20 00:58:05;;;;;;;32.87;13.87;;;;;0.80;100617.00;;;;10364507;28;20566;-74
2023/01/20 01:03:09;;;;;;;32.37;14.13;;;;;0.80;100618.00;;;;10347251;28;20318;-74
2023/01/20 01:08:11;;;;;;;42.10;15.43;;;;;0.80;100620.00;;;;10362368;28;20203;-74
2023/01/20 01:13:13;;;;;;;38.67;14.27;;;;;0.80;100632.00;;;;10363962;28;20227;-74
2023/01/20 01:18:16;;;;;;;34.07;13.43;;;;;0.70;100631.00;;;;10404072;28;20278;-74
2023/01/20 01:23:18;;;;;;;32.43;13.57;;;;;0.70;100639.00;;;;10381049;28;20209;-74
2023/01/20 01:28:20;;;;;;;32.47;13.33;;;;;0.70;100641.00;;;;10369599;28;20214;-74
2023/01/20 01:33:22;;;;;;;30.17;12.43;;;;;0.60;100644.00;;;;10382920;28;20632;-74
2023/01/20 01:38:24;;;;;;;30.20;13.30;;;;;0.60;100660.00;;;;10362285;28;20207;-74
2023/01/20 01:43:32;;;;;;;36.57;13.10;;;;;0.60;100654.00;;;;10371418;28;20847;-73
2023/01/20 01:48:42;;;;;;;31.40;12.07;;;;;0.60;100672.00;;;;10361964;28;20207;-74
2023/01/20 01:53:52;;;;;;;31.43;13.90;;;;;0.60;100675.00;;;;10345939;28;20200;-73
2023/01/20 01:58:57;;;;;;;35.17;13.13;;;;;0.60;100678.00;;;;10352836;28;20226;-73
2023/01/20 02:04:20;;;;;;;34.70;13.37;;;;;0.60;100683.00;;;;10353269;28;20904;-75
2023/01/20 02:09:25;;;;;;;31.80;11.73;;;;;0.50;100688.00;;;;10369385;28;20187;-75
2023/01/20 02:14:34;;;;;;;28.27;12.63;;;;;0.50;100680.00;;;;10369282;28;20226;-75
2023/01/20 02:20:14;;;;;;;33.93;13.50;;;;;0.50;100683.00;;;;10384868;28;20197;-75
2023/01/20 02:25:19;;;;;;;36.90;14.50;;;;;0.60;100672.00;;;;10375160;28;20219;-75
2023/01/20 02:30:36;;;;;;;36.70;14.33;;;;;0.50;100665.00;;;;10344932;28;21079;-75
2023/01/20 02:35:42;;;;;;;39.77;15.10;;;;;0.50;100665.00;;;;10349851;28;20294;-75
2023/01/20 02:41:01;;;;;;;39.87;16.73;;;;;0.50;100669.00;;;;10369574;28;20245;-76
2023/01/20 02:46:33;;;;;;;28.60;10.53;;;;;0.40;100670.00;;;;10392917;28;20222;-75
2023/01/20 02:51:43;;;;;;;45.40;14.57;;;;;0.30;100670.00;;;;10371259;28;20206;-76
2023/01/20 02:56:47;;;;;;;40.87;14.20;;;;;0.20;100667.00;;;;10368701;28;20305;-76
2023/01/20 03:02:03;;;;;;;48.33;17.20;;;;;0.30;100660.00;;;;10368478;28;20214;-76
2023/01/20 03:07:08;;;;;;;49.67;17.63;;;;;0.30;100663.00;;;;10369052;28;20234;-76
2023/01/20 03:12:21;;;;;;;47.33;16.13;;;;;0.20;100669.00;;;;10352909;28;20219;-76
2023/01/20 03:17:23;;;;;;;50.97;18.27;;;;;0.10;100670.00;;;;10381164;28;20310;-76
2023/01/20 03:22:24;;;;;;;44.87;17.70;;;;;0.10;100676.00;;;;10355275;28;20222;-76
2023/01/20 03:27:26;;;;;;;51.00;18.07;;;;;0.00;100682.00;;;;10329912;28;20204;-76
2023/01/20 03:32:30;;;;;;;34.73;14.03;;;;;0.00;100680.00;;;;10351029;28;20217;-76
2023/01/20 03:37:32;;;;;;;40.47;15.27;;;;;0.10;100678.00;;;;10352976;28;20706;-76
2023/01/20 03:42:45;;;;;;;30.40;11.27;;;;;0.10;100674.00;;;;10379280;28;20199;-76
2023/01/20 03:48:02;;;;;;;35.47;13.40;;;;;0.10;100673.00;;;;10341408;28;20219;-76
2023/01/20 03:53:37;;;;;;;33.37;13.67;;;;;0.00;100675.00;;;;10391042;28;20260;-76
2023/01/20 03:58:43;;;;;;;36.13;13.97;;;;;-0.10;100679.00;;;;10390877;28;20195;-76
2023/01/20 04:03:49;;;;;;;36.53;14.97;;;;;-0.10;100675.00;;;;10374921;28;20241;-76
2023/01/20 04:08:58;;;;;;;30.67;12.90;;;;;0.00;100681.00;;;;10374776;28;20211;-76
2023/01/20 04:14:00;;;;;;;32.57;12.73;;;;;0.00;100677.00;;;;10398798;28;20578;-76
2023/01/20 04:19:03;;;;;;;32.93;14.87;;;;;0.00;100688.00;;;;10426103;28;20209;-76
2023/01/20 04:24:16;;;;;;;37.27;14.23;;;;;0.00;100687.00;;;;10382487;28;20756;-76
2023/01/20 04:29:18;;;;;;;39.23;14.50;;;;;0.10;100695.00;;;;10365019;28;20215;-76
2023/01/20 04:34:20;;;;;;;42.00;15.47;;;;;0.20;100683.00;;;;10361893;28;20204;-76
2023/01/20 04:39:21;;;;;;;40.83;17.23;;;;;0.20;100710.00;;;;10337679;28;20203;-76
2023/01/20 04:44:23;;;;;;;46.50;18.10;;;;;0.20;100693.00;;;;10375564;28;20226;-76
2023/01/20 04:49:25;;;;;;;55.30;19.60;;;;;0.30;100695.00;;;;10372821;28;20808;-76
2023/01/20 04:54:27;;;;;;;51.57;18.00;;;;;0.30;100697.00;;;;10389554;28;20203;-76
2023/01/20 04:59:29;;;;;;;86.73;26.83;;;;;0.30;100696.00;;;;10372504;28;20630;-76
2023/01/20 05:04:31;;;;;;;55.57;19.10;;;;;0.30;100699.00;;;;10388446;28;20211;-76
2023/01/20 05:09:33;;;;;;;47.03;18.63;;;;;0.40;100696.00;;;;10388445;28;20206;-76
2023/01/20 05:14:35;;;;;;;53.03;20.53;;;;;0.40;100706.00;;;;10383495;28;20218;-76
2023/01/20 05:19:37;;;;;;;51.20;18.20;;;;;0.40;100708.00;;;;10412646;28;20205;-76
2023/01/20 05:24:39;;;;;;;40.67;15.03;;;;;0.40;100716.00;;;;10367542;28;20222;-76
2023/01/20 05:29:41;;;;;;;37.10;15.77;;;;;0.40;100719.00;;;;10383123;28;20203;-76
2023/01/20 05:34:42;;;;;;;35.40;14.57;;;;;0.40;100727.00;;;;10380646;28;20238;-76
2023/01/20 05:39:44;;;;;;;45.57;17.93;;;;;0.40;100720.00;;;;10386851;28;20198;-76
2023/01/20 05:44:46;;;;;;;38.67;16.30;;;;;0.50;100733.00;;;;10369882;28;20217;-76
2023/01/20 05:49:48;;;;;;;54.67;20.13;;;;;0.50;100742.00;;;;10370544;28;20661;-76
2023/01/20 05:54:51;;;;;;;60.73;23.10;;;;;0.60;100743.00;;;;10358843;28;20203;-76
2023/01/20 05:59:54;;;;;;;76.67;27.83;;;;;0.50;100737.00;;;;10365361;28;20199;-76
2023/01/20 06:05:00;;;;;;;73.43;28.43;;;;;0.40;100726.00;;;;10403152;28;20218;-76
2023/01/20 06:10:02;;;;;;;60.70;24.50;;;;;0.40;100736.00;;;;10385821;28;20616;-76
2023/01/20 06:15:05;;;;;;;38.20;14.20;;;;;0.50;100734.00;;;;10385421;28;20226;-76
2023/01/20 06:20:09;;;;;;;35.47;14.83;;;;;0.50;100732.00;;;;10350227;28;20198;-75
2023/01/20 06:25:11;;;;;;;30.90;13.53;;;;;0.50;100717.00;;;;10367844;28;20272;-75
2023/01/20 06:30:13;;;;;;;29.97;12.70;;;;;0.50;100722.00;;;;10356888;28;20262;-75
2023/01/20 06:35:15;;;;;;;29.13;13.07;;;;;0.60;100725.00;;;;10384034;28;20182;-76
2023/01/20 06:40:18;;;;;;;29.47;12.27;;;;;0.60;100715.00;;;;10370959;28;20195;-76
2023/01/20 06:45:20;;;;;;;21.60;9.47;;;;;0.60;100733.00;;;;10361609;28;20219;-76
2023/01/20 06:50:22;;;;;;;32.60;13.27;;;;;0.70;100745.00;;;;10361186;28;20231;-76
2023/01/20 06:55:23;;;;;;;27.90;11.67;;;;;0.80;100749.00;;;;10344771;28;20187;-75
2023/01/20 07:00:26;;;;;;;28.87;12.63;;;;;0.80;100744.00;;;;10380666;28;20703;-75
2023/01/20 07:05:27;;;;;;;32.50;15.27;;;;;0.90;100757.00;;;;10321749;28;20279;-75
2023/01/20 07:10:30;;;;;;;36.63;14.57;;;;;0.90;100761.00;;;;10368304;28;20192;-76
2023/01/20 07:15:32;;;;;;;34.77;14.77;;;;;0.90;100756.00;;;;10368053;28;20218;-76
2023/01/20 07:20:33;;;;;;;37.93;14.50;;;;;0.90;100765.00;;;;10374110;28;20203;-76
2023/01/20 07:25:36;;;;;;;29.67;14.50;;;;;0.90;100766.00;;;;10391739;28;20207;-76
2023/01/20 07:30:38;;;;;;;27.27;12.07;;;;;0.90;100768.00;;;;10408898;28;20222;-76
2023/01/20 07:35:41;;;;;;;32.53;13.07;;;;;0.90;100768.00;;;;10365612;28;20226;-76
2023/01/20 07:40:43;;;;;;;45.07;16.20;;;;;0.90;100768.00;;;;10392356;28;20199;-76
2023/01/20 07:45:44;;;;;;;35.23;14.83;;;;;1.00;100768.00;;;;10396273;28;20210;-76
2023/01/20 07:50:47;;;;;;;35.33;15.60;;;;;1.00;100766.00;;;;10408432;28;20232;-76
2023/01/20 07:55:49;;;;;;;34.47;14.40;;;;;1.00;100775.00;;;;10334635;28;20231;-76
2023/01/20 08:00:51;;;;;;;30.47;12.90;;;;;1.00;100787.00;;;;10350864;28;20187;-76
2023/01/20 08:05:53;;;;;;;30.07;12.83;;;;;0.90;100785.00;;;;10358393;28;20981;-76
2023/01/20 08:10:56;;;;;;;27.90;13.17;;;;;0.80;100784.00;;;;10407196;28;20270;-76
2023/01/20 08:16:00;;;;;;;31.07;14.27;;;;;0.80;100779.00;;;;10373329;28;20195;-76
2023/01/20 08:21:07;;;;;;;31.43;13.90;;;;;0.80;100789.00;;;;10389879;28;20585;-76
2023/01/20 08:26:09;;;;;;;29.57;15.27;;;;;0.90;100791.00;;;;10412528;28;20222;-76
2023/01/20 08:31:13;;;;;;;36.50;15.93;;;;;1.00;100797.00;;;;10338530;28;20217;-76
2023/01/20 08:36:19;;;;;;;30.70;14.70;;;;;1.00;100799.00;;;;10407320;28;20328;-76
2023/01/20 08:41:25;;;;;;;24.00;12.27;;;;;1.10;100805.00;;;;10389175;28;20209;-76
2023/01/20 08:46:27;;;;;;;33.40;14.80;;;;;1.10;100810.00;;;;10367115;28;20277;-77
2023/01/20 08:51:31;;;;;;;33.87;14.63;;;;;1.20;100805.00;;;;10331786;28;20666;-76
2023/01/20 08:56:35;;;;;;;26.40;13.83;;;;;1.20;100799.00;;;;10348578;28;20210;-76
2023/01/20 09:01:37;;;;;;;29.60;13.57;;;;;1.40;100805.00;;;;10348381;28;20203;-77
2023/01/20 09:06:44;;;;;;;30.60;14.60;;;;;1.70;100802.00;;;;10347925;28;20783;-77
2023/01/20 09:11:52;;;;;;;29.73;14.23;;;;;1.90;100814.00;;;;10346890;28;20215;-77
2023/01/20 09:16:54;;;;;;;30.13;14.73;;;;;2.00;100811.00;;;;10387272;28;20679;-77
2023/01/20 09:21:56;;;;;;;26.13;12.53;;;;;2.10;100811.00;;;;10396690;28;20202;-77
2023/01/20 09:26:58;;;;;;;27.43;13.53;;;;;2.30;100818.00;;;;10429011;28;20214;-77
2023/01/20 09:32:00;;;;;;;28.37;13.77;;;;;2.40;100818.00;;;;10400791;28;20415;-77
2023/01/20 09:54:26;;;;;;;27.17;13.10;;;;;2.60;100854.00;;;;10345279;28;20242;-76
2023/01/20 09:59:39;;;;;;;24.97;11.63;;;;;2.60;100848.00;;;;10338249;28;20214;-77
2023/01/20 10:04:56;;;;;;;23.87;10.63;;;;;2.50;100848.00;;;;10362023;28;20212;-77
2023/01/20 10:10:08;;;;;;;25.33;12.33;;;;;2.50;100856.00;;;;10329089;28;20754;-76
2023/01/20 10:15:24;;;;;;;18.60;10.00;;;;;2.90;100850.00;;;;10395755;28;20230;-77
2023/01/20 10:20:44;;;;;;;24.73;11.77;;;;;3.30;100848.00;;;;10394768;28;20188;-77
2023/01/20 10:25:52;;;;;;;28.03;12.13;;;;;3.70;100854.00;;;;10389760;28;20209;-77
2023/01/20 10:30:57;;;;;;;23.30;12.17;;;;;4.00;100853.00;;;;10380652;28;20206;-76
2023/01/20 10:36:00;;;;;;;20.33;10.93;;;;;4.40;100846.00;;;;10356029;28;20203;-77
2023/01/20 10:41:13;;;;;;;20.07;10.93;;;;;4.50;100844.00;;;;10351860;28;20654;-77
2023/01/20 10:46:37;;;;;;;27.00;11.60;;;;;4.60;100845.00;;;;10395103;28;20213;-77
2023/01/20 10:52:09;;;;;;;22.43;9.53;;;;;4.50;100844.00;;;;10370752;28;20729;-77
2023/01/20 10:57:14;;;;;;;14.60;8.70;;;;;4.40;100848.00;;;;10361160;28;20187;-77
2023/01/20 11:02:26;;;;;;;18.03;9.83;;;;;4.60;100826.00;;;;10377509;28;20209;-77
2023/01/20 11:07:32;;;;;;;23.30;9.80;;;;;4.80;100836.00;;;;10370172;28;20737;-77
2023/01/20 11:12:38;;;;;;;21.53;10.50;;;;;5.20;100844.00;;;;10336356;28;20215;-76
2023/01/20 11:17:40;;;;;;;16.37;8.93;;;;;6.00;100849.00;;;;10436994;28;20205;-77
2023/01/20 11:22:46;;;;;;;23.30;8.87;;;;;5.90;100837.00;;;;10406043;28;20202;-77
2023/01/20 11:27:49;;;;;;;16.03;7.77;;;;;6.00;100855.00;;;;10416575;28;20225;-77
2023/01/20 11:33:15;;;;;;;22.40;8.87;;;;;6.60;100848.00;;;;10384308;28;20558;-77
2023/01/20 11:38:26;;;;;;;17.40;8.53;;;;;6.20;100833.00;;;;10365483;28;20462;-76
2023/01/20 11:43:36;;;;;;;14.33;8.20;;;;;5.00;100837.00;;;;10392338;28;20207;-77
2023/01/20 11:48:39;;;;;;;14.20;7.20;;;;;4.40;100845.00;;;;10374696;28;20226;-76
2023/01/20 11:53:43;;;;;;;15.47;7.00;;;;;4.30;100850.00;;;;10368197;28;20208;-76
2023/01/20 11:58:54;;;;;;;15.67;8.20;;;;;4.10;100847.00;;;;10351536;28;20211;-76
2023/01/20 12:04:16;;;;;;;14.03;7.37;;;;;4.00;100844.00;;;;10367081;28;20192;-76
2023/01/20 12:09:25;;;;;;;16.93;7.40;;;;;4.10;100837.00;;;;10363204;28;20222;-76
2023/01/20 12:14:35;;;;;;;15.27;7.73;;;;;4.20;100834.00;;;;10377609;28;20223;-76
2023/01/20 12:19:56;;;;;;;12.97;7.33;;;;;4.20;100819.00;;;;10366358;28;20200;-76
2023/01/20 12:25:13;;;;;;;15.17;7.70;;;;;4.20;100808.00;;;;10381535;28;20210;-76
2023/01/20 12:30:30;;;;;;;12.77;6.90;;;;;4.10;100825.00;;;;10374336;28;20202;-75
2023/01/20 12:35:43;;;;;;;13.53;7.50;;;;;3.90;100843.00;;;;10366614;28;20278;-76
2023/01/20 12:40:47;;;;;;;10.20;6.30;;;;;3.90;100851.00;;;;10334178;28;20195;-76
2023/01/20 12:46:04;;;;;;;8.47;5.03;;;;;3.60;100846.00;;;;10377258;28;20222;-77
2023/01/20 12:51:42;;;;;;;8.13;6.00;;;;;3.30;100847.00;;;;10403696;28;20206;-76
2023/01/20 12:57:03;;;;;;;9.37;5.37;;;;;3.40;100852.00;;;;10330793;28;20254;-77
2023/01/20 13:02:36;;;;;;;10.87;7.17;;;;;3.60;100844.00;;;;10348565;28;20203;-77
2023/01/20 13:07:46;;;;;;;10.90;7.47;;;;;3.70;100846.00;;;;10380129;28;20264;-77
2023/01/20 13:13:02;;;;;;;11.97;7.53;;;;;3.80;100848.00;;;;10364996;28;20325;-77
2023/01/20 13:18:41;;;;;;;13.57;7.30;;;;;4.00;100837.00;;;;10343190;28;20211;-77
2023/01/20 13:23:45;;;;;;;17.87;10.37;;;;;3.90;100844.00;;;;10348021;28;20294;-77
2023/01/20 13:28:55;;;;;;;11.20;7.70;;;;;4.00;100850.00;;;;10347999;28;20423;-77
2023/01/20 13:34:22;;;;;;;14.77;7.33;;;;;4.00;100838.00;;;;10375798;28;20206;-77
2023/01/20 13:39:40;;;;;;;18.60;9.70;;;;;4.60;100835.00;;;;10371320;28;20215;-77
2023/01/20 13:44:42;;;;;;;17.53;9.50;;;;;4.90;100833.00;;;;10381402;28;20198;-77
2023/01/20 13:49:52;;;;;;;12.57;7.00;;;;;5.20;100826.00;;;;10353902;28;20209;-77
2023/01/20 13:54:55;;;;;;;9.20;6.27;;;;;5.90;100812.00;;;;10363827;28;20195;-77
2023/01/20 13:59:58;;;;;;;13.00;5.50;;;;;6.40;100816.00;;;;10371227;28;20207;-77
2023/01/20 14:05:00;;;;;;;12.13;5.20;;;;;6.50;100818.00;;;;10361620;28;20592;-77
2023/01/20 14:10:02;;;;;;;14.53;5.27;;;;;5.70;100826.00;;;;10355577;28;20214;-77
2023/01/20 14:15:05;;;;;;;8.57;4.63;;;;;5.20;100825.00;;;;10391412;28;20218;-77
2023/01/20 14:20:22;;;;;;;9.67;4.70;;;;;4.70;100846.00;;;;10368863;28;20221;-77
2023/01/20 14:25:25;;;;;;;13.67;4.60;;;;;4.50;100861.00;;;;10348389;28;20286;-77
2023/01/20 14:30:27;;;;;;;7.27;3.57;;;;;4.70;100862.00;;;;10345973;28;20543;-77
2023/01/20 14:35:32;;;;;;;10.73;4.10;;;;;5.00;100859.00;;;;10371663;28;20202;-77
2023/01/20 14:40:34;;;;;;;9.67;4.73;;;;;5.00;100856.00;;;;10369756;28;20193;-78
2023/01/20 14:45:36;;;;;;;9.90;4.67;;;;;5.20;100852.00;;;;10370389;28;20218;-77
2023/01/20 14:50:40;;;;;;;13.00;5.83;;;;;5.50;100857.00;;;;10370570;28;20194;-77
2023/01/20 14:56:06;;;;;;;11.77;5.87;;;;;5.70;100863.00;;;;10346899;28;20200;-77
2023/01/20 15:01:18;;;;;;;13.13;5.33;;;;;5.60;100870.00;;;;10346224;28;20196;-77
2023/01/20 15:06:22;;;;;;;11.30;6.50;;;;;5.40;100876.00;;;;10329066;28;20498;-77
2023/01/20 15:11:30;;;;;;;10.67;4.60;;;;;5.30;100875.00;;;;10379142;28;20242;-77
2023/01/20 15:16:35;;;;;;;11.53;4.57;;;;;5.20;100888.00;;;;10398592;28;20196;-77
2023/01/20 15:21:36;;;;;;;5.87;2.17;;;;;5.20;100886.00;;;;10424449;28;20226;-77
2023/01/20 15:26:38;;;;;;;5.47;2.63;;;;;5.00;100899.00;;;;10352466;28;20294;-78
2023/01/20 15:31:40;;;;;;;9.23;3.00;;;;;4.80;100909.00;;;;10379001;28;20206;-77
2023/01/20 15:36:44;;;;;;;3.90;2.47;;;;;4.60;100900.00;;;;10355658;28;20214;-77
2023/01/20 15:41:47;;;;;;;5.37;2.53;;;;;4.40;100914.00;;;;10375963;28;20218;-77
2023/01/20 15:46:50;;;;;;;12.43;4.70;;;;;4.20;100920.00;;;;10375975;28;20273;-77
2023/01/20 15:51:52;;;;;;;5.73;3.17;;;;;4.10;100924.00;;;;10375613;28;20693;-77
2023/01/20 15:56:54;;;;;;;11.70;5.87;;;;;4.10;100913.00;;;;10372093;28;20209;-77
2023/01/20 16:01:56;;;;;;;4.70;2.90;;;;;4.00;100930.00;;;;10403427;28;20190;-77
2023/01/20 16:06:58;;;;;;;8.20;3.67;;;;;3.90;100963.00;;;;10390927;28;20210;-77
2023/01/20 16:12:00;;;;;;;1.87;1.30;;;;;3.40;100968.00;;;;10351161;28;20227;-76
2023/01/20 16:17:02;;;;;;;5.67;3.00;;;;;3.20;101003.00;;;;10375043;28;20203;-76
2023/01/20 16:22:05;;;;;;;3.27;2.40;;;;;2.90;100997.00;;;;10331719;28;20627;-76
2023/01/20 16:27:16;;;;;;;5.07;3.10;;;;;2.70;101014.00;;;;10347990;28;20223;-76
2023/01/20 16:32:19;;;;;;;4.53;2.40;;;;;2.20;101008.00;;;;10374870;28;20191;-75
2023/01/20 16:37:23;;;;;;;2.13;1.90;;;;;1.90;101004.00;;;;10358717;28;20332;-76
2023/01/20 16:42:25;;;;;;;2.23;1.93;;;;;1.80;100997.00;;;;10432665;28;20198;-76
2023/01/20 16:47:27;;;;;;;2.90;1.93;;;;;1.80;101013.00;;;;10407103;28;20210;-77
2023/01/20 16:52:29;;;;;;;3.10;1.73;;;;;1.80;101012.00;;;;10403759;28;20191;-77
2023/01/20 16:57:31;;;;;;;2.60;2.17;;;;;1.90;101022.00;;;;10362606;28;20207;-77
2023/01/20 17:02:37;;;;;;;4.73;3.27;;;;;1.90;101035.00;;;;10377936;28;20207;-77
2023/01/20 17:07:39;;;;;;;5.50;3.97;;;;;2.00;101030.00;;;;10371859;28;20214;-77
2023/01/20 17:12:41;;;;;;;2.73;2.30;;;;;2.00;101029.00;;;;10355821;28;20277;-77
2023/01/20 17:17:53;;;;;;;2.77;2.27;;;;;2.00;101022.00;;;;10347253;28;20202;-77
2023/01/20 17:22:55;;;;;;;2.63;2.33;;;;;2.00;101029.00;;;;10382544;28;20286;-77
2023/01/20 17:27:57;;;;;;;3.77;2.73;;;;;2.00;101039.00;;;;10405057;28;20228;-77
2023/01/20 17:32:59;;;;;;;6.90;3.77;;;;;2.00;101048.00;;;;10352705;28;20825;-77
2023/01/20 17:38:01;;;;;;;5.60;4.00;;;;;2.10;101058.00;;;;10369825;28;20657;-77
2023/01/20 17:43:04;;;;;;;5.40;4.30;;;;;2.00;101065.00;;;;10373030;28;20230;-77
2023/01/20 17:48:06;;;;;;;5.53;3.10;;;;;1.90;101086.00;;;;10352460;28;20245;-77
2023/01/20 17:53:08;;;;;;;3.90;3.10;;;;;1.80;101094.00;;;;10357595;28;20198;-77
2023/01/20 17:58:10;;;;;;;2.73;2.20;;;;;1.60;101103.00;;;;10389773;28;20249;-76
2023/01/20 18:03:12;;;;;;;2.20;2.00;;;;;1.60;101112.00;;;;10361000;28;20207;-77
2023/01/20 18:08:13;;;;;;;3.77;2.00;;;;;1.60;101118.00;;;;10370851;28;20572;-77
2023/01/20 18:13:15;;;;;;;2.43;1.93;;;;;1.70;101148.00;;;;10361846;28;20731;-77
2023/01/20 18:18:17;;;;;;;2.40;1.97;;;;;1.70;101144.00;;;;10396239;28;20199;-77
2023/01/20 18:23:19;;;;;;;3.63;2.60;;;;;1.70;101165.00;;;;10363883;28;20197;-76
2023/01/20 18:28:21;;;;;;;8.90;5.60;;;;;1.70;101180.00;;;;10325518;28;20257;-77
2023/01/20 18:33:23;;;;;;;7.33;4.63;;;;;1.70;101185.00;;;;10380028;28;20198;-77
2023/01/20 18:38:25;;;;;;;8.40;6.20;;;;;1.70;101209.00;;;;10374326;28;20561;-76
2023/01/20 18:43:28;;;;;;;9.40;6.50;;;;;1.50;101213.00;;;;10368301;28;20862;-77
2023/01/20 18:48:29;;;;;;;8.07;6.50;;;;;1.40;101228.00;;;;10381871;28;20218;-77
2023/01/20 18:53:32;;;;;;;10.50;6.70;;;;;1.30;101233.00;;;;10402852;28;20318;-77
2023/01/20 18:58:36;;;;;;;12.87;7.80;;;;;1.30;101240.00;;;;10356396;28;20222;-77
2023/01/20 19:03:38;;;;;;;12.07;7.67;;;;;1.20;101253.00;;;;10376439;28;20209;-77
2023/01/20 19:08:41;;;;;;;13.53;8.27;;;;;1.10;101266.00;;;;10386459;28;20315;-77
2023/01/20 19:13:44;;;;;;;14.13;9.57;;;;;1.10;101270.00;;;;10369819;28;20218;-77
2023/01/20 19:18:52;;;;;;;14.17;9.07;;;;;1.10;101290.00;;;;10381417;28;20195;-76
2023/01/20 19:23:56;;;;;;;17.27;9.77;;;;;1.10;101310.00;;;;10391350;28;20214;-77
2023/01/20 19:29:07;;;;;;;18.67;10.10;;;;;1.10;101327.00;;;;10407685;28;20222;-77
2023/01/20 19:34:09;;;;;;;19.23;11.37;;;;;1.10;101340.00;;;;10376643;28;20260;-77
2023/01/20 19:39:11;;;;;;;27.13;12.87;;;;;1.00;101345.00;;;;10368079;28;20270;-77
2023/01/20 19:44:13;;;;;;;28.97;14.17;;;;;0.90;101352.00;;;;10377284;28;20223;-77
2023/01/20 19:49:15;;;;;;;35.30;17.03;;;;;0.90;101363.00;;;;10382173;28;20264;-77
2023/01/20 19:54:17;;;;;;;34.73;17.53;;;;;0.90;101371.00;;;;10377166;28;20729;-76
2023/01/20 19:59:20;;;;;;;42.10;19.83;;;;;0.90;101382.00;;;;10358992;28;20222;-77
2023/01/20 20:04:24;;;;;;;25.53;13.50;;;;;0.90;101390.00;;;;10378307;28;20294;-76
2023/01/20 20:09:26;;;;;;;31.87;15.43;;;;;0.80;101403.00;;;;10346042;28;20279;-77
2023/01/20 20:14:30;;;;;;;35.00;17.57;;;;;0.80;101413.00;;;;10351508;28;20237;-77
2023/01/20 20:19:32;;;;;;;23.83;13.87;;;;;0.80;101419.00;;;;10375652;28;20206;-77
2023/01/20 20:24:34;;;;;;;30.57;14.57;;;;;0.80;101434.00;;;;10359834;28;20201;-76
2023/01/20 20:29:36;;;;;;;23.70;12.70;;;;;0.90;101446.00;;;;10346527;28;20230;-77
2023/01/20 20:34:38;;;;;;;29.27;14.20;;;;;0.80;101457.00;;;;10362173;28;20214;-77
2023/01/20 20:39:40;;;;;;;27.73;12.53;;;;;0.80;101457.00;;;;10377082;28;20195;-77
2023/01/20 20:44:42;;;;;;;24.60;14.20;;;;;0.80;101485.00;;;;10348549;28;20199;-77
2023/01/20 20:49:46;;;;;;;29.17;14.93;;;;;0.90;101494.00;;;;10354641;28;20223;-77
2023/01/20 20:54:49;;;;;;;28.57;16.23;;;;;0.90;101512.00;;;;10365650;28;20646;-77
2023/01/20 20:59:51;;;;;;;28.27;14.27;;;;;0.90;101518.00;;;;10361872;28;20235;-77
2023/01/20 21:05:00;;;;;;;36.03;18.63;;;;;0.90;101533.00;;;;10362976;28;20210;-77
2023/01/20 21:10:03;;;;;;;31.43;17.53;;;;;0.90;101540.00;;;;10362701;28;20230;-77
2023/01/20 21:15:06;;;;;;;34.27;19.67;;;;;0.90;101547.00;;;;10362950;28;20582;-77
2023/01/20 21:20:09;;;;;;;35.43;17.73;;;;;0.90;101549.00;;;;10375020;28;20260;-77
2023/01/20 21:25:11;;;;;;;37.97;18.67;;;;;0.90;101567.00;;;;10362700;28;20903;-77
2023/01/20 21:30:13;;;;;;;32.33;16.40;;;;;0.90;101578.00;;;;10363099;28;20234;-77
2023/01/20 21:35:16;;;;;;;30.23;15.67;;;;;0.90;101584.00;;;;10356883;28;20662;-77
2023/01/20 21:40:18;;;;;;;30.20;17.43;;;;;0.90;101608.00;;;;10359931;28;20250;-77
2023/01/20 21:45:21;;;;;;;32.70;16.70;;;;;0.80;101617.00;;;;10360922;28;20203;-77
2023/01/20 21:55:44;;;;;;;31.50;17.30;;;;;0.80;101636.00;;;;10359915;28;20213;-77
2023/01/20 22:00:53;;;;;;;32.20;16.10;;;;;0.80;101640.00;;;;10359257;28;20310;-77
2023/01/20 22:05:56;;;;;;;35.60;18.53;;;;;0.80;101645.00;;;;10355797;28;20199;-77
2023/01/20 22:11:04;;;;;;;35.50;20.57;;;;;0.80;101654.00;;;;10343854;28;20213;-77
2023/01/20 22:16:06;;;;;;;39.73;19.87;;;;;0.80;101658.00;;;;10378614;28;20199;-77
2023/01/20 22:21:08;;;;;;;41.70;20.07;;;;;0.80;101678.00;;;;10361890;28;20788;-76
2023/01/20 22:26:11;;;;;;;37.80;19.60;;;;;0.80;101686.00;;;;10331387;28;20202;-77
2023/01/20 22:31:22;;;;;;;38.70;19.73;;;;;0.80;101690.00;;;;10363306;28;20223;-76
2023/01/20 22:36:24;;;;;;;38.17;19.67;;;;;0.90;101703.00;;;;10393289;28;20218;-77
2023/01/20 22:41:27;;;;;;;39.10;20.17;;;;;0.90;101719.00;;;;10376028;28;20296;-77
2023/01/20 22:46:29;;;;;;;38.93;19.93;;;;;0.80;101733.00;;;;10390596;28;20222;-77
2023/01/20 22:51:31;;;;;;;39.90;21.63;;;;;0.80;101728.00;;;;10391904;28;20214;-77
2023/01/20 22:56:33;;;;;;;42.83;21.53;;;;;0.80;101747.00;;;;10372554;28;20577;-77
2023/01/20 23:01:35;;;;;;;43.37;20.33;;;;;0.80;101756.00;;;;10409607;28;20689;-76
2023/01/20 23:06:38;;;;;;;36.47;18.33;;;;;0.60;101767.00;;;;10366751;28;20246;-77
2023/01/20 23:11:40;;;;;;;35.40;17.90;;;;;0.30;101767.00;;;;10379944;28;20253;-77
2023/01/20 23:16:42;;;;;;;37.17;17.87;;;;;0.10;101773.00;;;;10372557;28;20235;-77
2023/01/20 23:21:44;;;;;;;34.97;20.33;;;;;-0.10;101791.00;;;;10375989;28;20198;-77
2023/01/20 23:26:46;;;;;;;31.67;17.97;;;;;-0.20;101804.00;;;;10383602;28;20225;-77
2023/01/20 23:31:48;;;;;;;34.47;17.17;;;;;-0.30;101808.00;;;;10356271;28;20202;-77
2023/01/20 23:36:51;;;;;;;35.73;16.90;;;;;-0.50;101815.00;;;;10380667;28;20857;-76
2023/01/20 23:41:53;;;;;;;30.03;16.07;;;;;-0.60;101824.00;;;;10391482;28;20217;-77
2023/01/20 23:46:55;;;;;;;34.97;17.33;;;;;-0.70;101841.00;;;;10362930;28;20219;-76
2023/01/20 23:51:57;;;;;;;26.30;15.23;;;;;-0.70;101849.00;;;;10366021;28;20281;-76
2023/01/20 23:56:59;;;;;;;35.27;15.43;;;;;-0.80;101859.00;;;;10381156;28;20207;-76
